createdAt,value
2023-02-16T00:01:47.486Z,17.97
2023-02-16T00:04:20.863Z,16.17
2023-02-16T00:06:49.639Z,16.10
2023-02-16T00:09:18.311Z,15.50
2023-02-16T00:12:04.282Z,16.37
2023-02-16T00:14:35.232Z,15.53
2023-02-16T00:17:04.035Z,15.73
2023-02-16T00:19:37.515Z,15.73
2023-02-16T00:22:07.172Z,15.37
2023-02-16T00:24:35.355Z,15.00
2023-02-16T00:27:03.436Z,15.40
2023-02-16T00:29:33.283Z,14.80
2023-02-16T00:32:03.610Z,14.80
2023-02-16T00:34:36.217Z,15.30
2023-02-16T00:37:06.410Z,15.30
2023-02-16T00:39:35.061Z,14.93
2023-02-16T00:42:05.620Z,16.03
2023-02-16T00:44:36.980Z,15.50
2023-02-16T00:47:21.184Z,15.83
2023-02-16T00:49:52.035Z,15.73
2023-02-16T00:52:37.425Z,15.37
2023-02-16T00:55:07.679Z,15.27
2023-02-16T00:57:38.830Z,16.30
2023-02-16T01:00:14.019Z,16.03
2023-02-16T01:02:42.719Z,15.13
2023-02-16T01:05:12.625Z,14.37
2023-02-16T01:08:01.346Z,14.63
2023-02-16T01:10:48.229Z,13.70
2023-02-16T01:13:16.971Z,13.03
2023-02-16T01:15:45.741Z,12.90
2023-02-16T01:18:15.337Z,12.20
2023-02-16T01:20:45.707Z,12.60
2023-02-16T01:23:14.561Z,12.33
2023-02-16T01:25:43.229Z,12.30
2023-02-16T01:28:20.413Z,11.77
2023-02-16T01:30:48.772Z,11.67
2023-02-16T01:33:16.963Z,11.47
2023-02-16T01:35:46.937Z,12.37
2023-02-16T01:38:18.930Z,12.00
2023-02-16T01:40:54.100Z,12.20
2023-02-16T01:43:25.854Z,11.80
2023-02-16T01:46:01.099Z,13.03
2023-02-16T01:48:32.585Z,12.37
2023-02-16T01:51:08.284Z,12.10
2023-02-16T01:53:41.327Z,11.43
2023-02-16T01:56:20.076Z,11.63
2023-02-16T01:58:51.473Z,11.43
2023-02-16T02:01:41.146Z,11.90
2023-02-16T02:04:37.874Z,13.00
2023-02-16T02:07:20.915Z,12.07
2023-02-16T02:09:58.905Z,11.77
2023-02-16T02:12:33.316Z,12.13
2023-02-16T02:15:01.368Z,11.37
2023-02-16T02:17:30.162Z,11.93
2023-02-16T02:20:08.961Z,11.20
2023-02-16T02:23:31.717Z,11.33
2023-02-16T02:26:41.472Z,10.80
2023-02-16T02:29:24.710Z,10.50
2023-02-16T02:32:03.786Z,10.23
2023-02-16T02:34:44.402Z,9.53
2023-02-16T02:37:20.007Z,10.50
2023-02-16T02:39:58.306Z,10.27
2023-02-16T02:42:36.241Z,10.43
2023-02-16T02:45:10.770Z,10.03
2023-02-16T02:47:40.971Z,9.67
2023-02-16T02:50:39.985Z,9.67
2023-02-16T02:53:13.377Z,10.43
2023-02-16T02:56:02.946Z,11.10
2023-02-16T02:59:06.564Z,9.20
2023-02-16T03:01:37.823Z,8.73
2023-02-16T03:04:09.231Z,9.30
2023-02-16T03:06:41.988Z,9.20
2023-02-16T03:09:12.672Z,9.30
2023-02-16T03:11:58.781Z,9.40
2023-02-16T03:14:32.157Z,9.53
2023-02-16T03:17:19.829Z,9.80
2023-02-16T03:20:08.322Z,8.67
2023-02-16T03:22:55.175Z,9.03
2023-02-16T03:25:43.185Z,8.57
2023-02-16T03:28:30.644Z,8.73
2023-02-16T03:31:02.535Z,8.90
2023-02-16T03:33:31.501Z,8.83
2023-02-16T03:36:00.572Z,9.10
2023-02-16T03:38:29.388Z,9.00
2023-02-16T03:40:57.516Z,8.43
2023-02-16T03:43:29.425Z,8.43
2023-02-16T03:46:01.494Z,8.00
2023-02-16T03:48:29.630Z,7.77
2023-02-16T03:51:00.210Z,8.10
2023-02-16T03:53:28.214Z,8.03
2023-02-16T03:55:56.408Z,7.47
2023-02-16T03:58:26.074Z,7.67
2023-02-16T04:00:54.791Z,7.40
2023-02-16T04:03:24.231Z,7.20
2023-02-16T04:05:52.366Z,7.07
2023-02-16T04:08:20.682Z,6.93
2023-02-16T04:10:48.888Z,7.17
2023-02-16T04:13:15.927Z,6.90
2023-02-16T04:15:43.944Z,7.33
2023-02-16T04:18:12.042Z,6.60
2023-02-16T04:20:41.662Z,7.30
2023-02-16T04:23:09.871Z,6.80
2023-02-16T04:25:38.187Z,7.43
2023-02-16T04:28:06.208Z,7.27
2023-02-16T04:30:34.362Z,7.43
2023-02-16T04:33:02.618Z,6.80
2023-02-16T04:35:30.905Z,7.57
2023-02-16T04:38:00.358Z,7.33
2023-02-16T04:40:28.513Z,7.73
2023-02-16T04:42:56.510Z,7.40
2023-02-16T04:45:24.532Z,7.00
2023-02-16T04:47:52.700Z,7.53
2023-02-16T04:50:20.840Z,7.30
2023-02-16T04:52:48.825Z,7.43
2023-02-16T04:55:18.336Z,7.33
2023-02-16T04:57:46.691Z,7.37
2023-02-16T05:00:15.392Z,7.57
2023-02-16T05:02:43.479Z,7.07
2023-02-16T05:05:11.530Z,7.40
2023-02-16T05:07:39.595Z,6.83
2023-02-16T05:10:08.594Z,7.10
2023-02-16T05:13:04.235Z,7.33
2023-02-16T05:15:32.367Z,6.83
2023-02-16T05:18:00.615Z,6.83
2023-02-16T05:20:42.669Z,7.10
2023-02-16T05:23:10.869Z,6.43
2023-02-16T05:25:38.882Z,6.60
2023-02-16T05:28:08.340Z,6.27
2023-02-16T05:30:38.890Z,6.37
2023-02-16T05:33:06.924Z,6.40
2023-02-16T05:35:35.652Z,6.77
2023-02-16T05:38:03.841Z,6.73
2023-02-16T05:40:31.991Z,7.27
2023-02-16T05:43:00.313Z,7.37
2023-02-16T05:45:29.879Z,8.10
2023-02-16T05:47:57.886Z,8.23
2023-02-16T05:50:25.948Z,8.23
2023-02-16T05:52:54.027Z,8.77
2023-02-16T05:55:22.025Z,7.83
2023-02-16T05:57:50.100Z,6.77
2023-02-16T06:00:18.969Z,6.90
2023-02-16T06:02:48.450Z,6.97
2023-02-16T06:05:16.588Z,6.20
2023-02-16T06:07:45.579Z,6.67
2023-02-16T06:10:13.798Z,6.70
2023-02-16T06:12:44.584Z,6.07
2023-02-16T06:15:12.920Z,6.90
2023-02-16T06:17:41.158Z,6.20
2023-02-16T06:20:11.975Z,6.20
2023-02-16T06:22:39.956Z,6.70
2023-02-16T06:25:08.514Z,6.40
2023-02-16T06:27:36.597Z,5.90
2023-02-16T06:30:06.242Z,6.50
2023-02-16T06:32:34.432Z,6.07
2023-02-16T06:35:02.470Z,5.77
2023-02-16T06:37:32.024Z,5.93
2023-02-16T06:40:00.336Z,5.90
2023-02-16T06:42:30.891Z,6.37
2023-02-16T06:44:59.065Z,6.03
2023-02-16T06:47:27.208Z,6.00
2023-02-16T06:49:55.473Z,6.80
2023-02-16T06:52:23.650Z,6.47
2023-02-16T06:54:53.120Z,7.30
2023-02-16T06:57:21.219Z,6.20
2023-02-16T06:59:49.206Z,7.13
2023-02-16T07:02:17.223Z,6.43
2023-02-16T07:04:45.926Z,6.97
2023-02-16T07:07:14.024Z,6.77
2023-02-16T07:09:42.292Z,6.80
2023-02-16T07:12:11.850Z,6.90
2023-02-16T07:14:39.941Z,7.27
2023-02-16T07:17:07.947Z,6.63
2023-02-16T07:19:36.118Z,7.13
2023-02-16T07:22:05.427Z,6.73
2023-02-16T07:24:33.503Z,6.53
2023-02-16T07:27:01.607Z,6.77
2023-02-16T07:29:31.378Z,6.73
2023-02-16T07:31:59.541Z,6.57
2023-02-16T07:34:27.651Z,7.50
2023-02-16T07:36:55.899Z,7.00
2023-02-16T07:39:23.983Z,7.47
2023-02-16T07:41:52.010Z,7.57
2023-02-16T07:44:20.180Z,7.50
2023-02-16T07:46:49.601Z,8.03
2023-02-16T07:49:17.634Z,6.97
2023-02-16T07:51:45.809Z,7.03
2023-02-16T07:54:14.090Z,7.50
2023-02-16T07:56:42.171Z,7.60
2023-02-16T07:59:10.318Z,7.40
2023-02-16T08:01:41.715Z,7.17
2023-02-16T08:04:11.176Z,7.47
2023-02-16T08:06:39.339Z,7.37
2023-02-16T08:09:07.833Z,7.13
2023-02-16T08:11:36.151Z,6.90
2023-02-16T08:14:04.357Z,7.53
2023-02-16T08:16:32.469Z,7.20
2023-02-16T08:19:03.655Z,7.23
2023-02-16T08:21:35.089Z,6.80
2023-02-16T08:24:04.763Z,6.70
2023-02-16T08:26:36.880Z,6.57
2023-02-16T08:29:05.556Z,6.83
2023-02-16T08:31:36.754Z,6.10
2023-02-16T08:34:06.002Z,6.63
2023-02-16T08:36:36.941Z,6.30
2023-02-16T08:39:07.152Z,6.23
2023-02-16T08:41:37.648Z,6.43
2023-02-16T08:44:07.265Z,6.20
2023-02-16T08:46:37.421Z,6.87
2023-02-16T08:49:06.355Z,7.63
2023-02-16T08:51:38.994Z,7.93
2023-02-16T08:54:08.771Z,8.17
2023-02-16T08:56:37.940Z,7.20
2023-02-16T08:59:06.104Z,6.83
2023-02-16T09:01:34.179Z,7.40
2023-02-16T09:04:02.312Z,7.00
2023-02-16T09:06:30.459Z,6.73
2023-02-16T09:08:59.889Z,7.50
2023-02-16T09:11:27.936Z,7.03
2023-02-16T09:13:55.998Z,7.90
2023-02-16T09:16:25.131Z,7.97
2023-02-16T09:18:53.542Z,7.97
2023-02-16T09:21:23.677Z,7.97
2023-02-16T09:23:54.468Z,7.77
2023-02-16T09:26:25.692Z,8.53
2023-02-16T09:28:54.533Z,8.37
2023-02-16T09:31:27.350Z,8.60
2023-02-16T09:33:57.263Z,8.30
2023-02-16T09:36:25.836Z,8.47
2023-02-16T09:38:54.206Z,8.00
2023-02-16T09:41:29.544Z,7.93
2023-02-16T09:44:01.193Z,7.43
2023-02-16T09:46:31.711Z,8.27
2023-02-16T09:49:03.788Z,7.80
2023-02-16T09:51:36.406Z,7.87
2023-02-16T09:54:16.676Z,7.80
2023-02-16T09:56:50.569Z,7.63
2023-02-16T09:59:28.986Z,7.60
2023-02-16T10:02:15.088Z,7.97
2023-02-16T10:04:53.371Z,7.97
2023-02-16T10:07:44.443Z,7.70
2023-02-16T10:10:17.633Z,8.30
2023-02-16T10:12:53.384Z,7.47
2023-02-16T10:15:24.864Z,8.10
2023-02-16T10:17:57.192Z,8.07
2023-02-16T10:20:32.739Z,8.70
2023-02-16T10:23:09.257Z,9.37
2023-02-16T10:25:43.403Z,8.40
2023-02-16T10:28:19.473Z,8.50
2023-02-16T10:30:52.181Z,8.37
2023-02-16T10:33:34.041Z,7.97
2023-02-16T10:36:07.294Z,8.93
2023-02-16T10:38:44.308Z,8.33
2023-02-16T10:41:22.070Z,8.70
2023-02-16T10:43:56.903Z,8.63
2023-02-16T10:46:27.590Z,8.73
2023-02-16T10:48:57.417Z,8.70
2023-02-16T10:51:29.016Z,6.10
2023-02-16T10:54:01.014Z,4.60
2023-02-16T10:56:45.134Z,6.37
2023-02-16T10:59:19.172Z,6.77
2023-02-16T11:01:48.971Z,6.00
2023-02-16T11:04:38.091Z,5.90
2023-02-16T11:07:09.012Z,6.23
2023-02-16T11:09:40.553Z,5.43
2023-02-16T11:12:25.800Z,5.67
2023-02-16T11:14:58.404Z,5.30
2023-02-16T11:17:27.136Z,5.43
2023-02-16T11:20:01.430Z,5.30
2023-02-16T11:22:33.772Z,5.13
2023-02-16T11:25:23.895Z,5.20
2023-02-16T11:27:54.425Z,4.20
2023-02-16T11:30:32.266Z,4.00
2023-02-16T11:33:03.324Z,4.20
2023-02-16T11:35:34.050Z,4.03
2023-02-16T11:38:06.476Z,4.60
2023-02-16T11:40:35.767Z,5.10
2023-02-16T11:43:06.305Z,5.10
2023-02-16T11:45:37.631Z,5.17
2023-02-16T11:48:08.393Z,4.83
2023-02-16T11:50:38.746Z,4.20
2023-02-16T11:53:24.224Z,4.80
2023-02-16T11:55:53.121Z,4.10
2023-02-16T11:58:25.335Z,4.80
2023-02-16T12:01:07.498Z,4.60
2023-02-16T12:04:01.503Z,4.73
2023-02-16T12:06:49.696Z,4.10
2023-02-16T12:09:31.145Z,4.57
2023-02-16T12:12:07.531Z,4.37
2023-02-16T12:14:49.245Z,4.27
2023-02-16T12:17:31.643Z,3.90
2023-02-16T12:20:08.192Z,5.20
2023-02-16T12:22:43.861Z,4.30
2023-02-16T12:25:28.084Z,4.87
2023-02-16T12:28:07.165Z,4.40
2023-02-16T12:30:49.399Z,5.10
2023-02-16T12:33:33.246Z,4.63
2023-02-16T12:36:24.738Z,4.63
2023-02-16T12:39:03.772Z,4.60
2023-02-16T12:41:45.867Z,4.77
2023-02-16T12:44:19.491Z,4.33
2023-02-16T12:46:52.017Z,4.70
2023-02-16T12:49:27.679Z,4.53
2023-02-16T12:52:02.054Z,4.67
2023-02-16T12:54:34.089Z,4.47
2023-02-16T12:57:06.025Z,4.37
2023-02-16T12:59:40.055Z,4.10
2023-02-16T13:02:16.445Z,4.10
2023-02-16T13:04:50.948Z,4.40
2023-02-16T13:07:24.972Z,4.33
2023-02-16T13:10:01.319Z,4.33
2023-02-16T13:12:33.619Z,4.37
2023-02-16T13:15:08.097Z,4.27
2023-02-16T13:17:41.504Z,3.97
2023-02-16T13:20:16.821Z,3.73
2023-02-16T13:23:12.522Z,3.77
2023-02-16T13:26:00.822Z,3.80
2023-02-16T13:28:49.243Z,3.73
2023-02-16T13:31:44.835Z,3.97
2023-02-16T13:34:42.385Z,4.40
2023-02-16T13:37:32.421Z,4.43
2023-02-16T13:40:21.758Z,4.20
2023-02-16T13:43:19.448Z,4.20
2023-02-16T13:45:48.619Z,3.70
2023-02-16T13:48:22.566Z,3.93
2023-02-16T13:50:58.617Z,4.00
2023-02-16T13:53:34.767Z,4.10
2023-02-16T13:56:36.233Z,4.50
2023-02-16T13:59:41.903Z,4.27
2023-02-16T14:02:14.144Z,4.27
2023-02-16T14:05:02.177Z,4.07
2023-02-16T14:07:38.055Z,4.67
2023-02-16T14:10:15.253Z,4.57
2023-02-16T14:12:44.486Z,4.27
2023-02-16T14:15:20.775Z,4.20
2023-02-16T14:17:48.984Z,4.70
2023-02-16T14:20:31.148Z,4.20
2023-02-16T14:23:01.098Z,4.20
2023-02-16T14:25:37.896Z,4.00
2023-02-16T14:28:27.559Z,4.60
2023-02-16T14:30:58.744Z,4.47
2023-02-16T14:33:45.087Z,4.30
2023-02-16T14:36:16.765Z,4.30
2023-02-16T14:38:47.482Z,5.30
2023-02-16T14:41:28.676Z,4.60
2023-02-16T14:44:22.129Z,5.70
2023-02-16T14:47:00.864Z,5.70
2023-02-16T14:50:03.744Z,5.90
2023-02-16T14:53:00.390Z,5.80
2023-02-16T14:56:05.585Z,5.60
2023-02-16T14:58:41.989Z,5.60
2023-02-16T15:01:14.876Z,5.23
2023-02-16T15:03:46.505Z,5.30
2023-02-16T15:06:34.393Z,5.07
2023-02-16T15:09:06.482Z,5.23
2023-02-16T15:11:57.014Z,5.33
2023-02-16T15:14:27.863Z,5.30
2023-02-16T15:16:58.034Z,5.30
2023-02-16T15:19:30.841Z,4.40
2023-02-16T15:22:18.848Z,4.80
2023-02-16T15:24:57.424Z,4.73
2023-02-16T15:27:26.536Z,4.40
2023-02-16T15:30:09.423Z,4.23
2023-02-16T15:32:38.097Z,4.00
2023-02-16T15:35:14.768Z,3.93
2023-02-16T15:37:42.872Z,13.93
2023-02-16T15:40:25.595Z,4.20
2023-02-16T15:42:56.898Z,3.57
2023-02-16T15:45:35.519Z,4.43
2023-02-16T15:48:25.142Z,3.70
2023-02-16T15:50:55.305Z,3.83
2023-02-16T15:53:45.048Z,3.53
2023-02-16T15:56:26.604Z,3.60
2023-02-16T15:58:56.333Z,3.40
2023-02-16T16:01:33.209Z,3.80
2023-02-16T16:04:07.512Z,2.93
2023-02-16T16:06:41.375Z,3.20
2023-02-16T16:09:21.587Z,3.80
2023-02-16T16:11:51.851Z,3.70
2023-02-16T16:14:20.665Z,3.90
2023-02-16T16:16:50.677Z,3.07
2023-02-16T16:19:21.504Z,3.70
2023-02-16T16:21:54.469Z,3.80
2023-02-16T16:24:34.041Z,3.57
2023-02-16T16:27:06.088Z,2.93
2023-02-16T16:29:40.399Z,3.73
2023-02-16T16:32:21.262Z,3.00
2023-02-16T16:34:50.065Z,2.87
2023-02-16T16:37:26.578Z,3.10
2023-02-16T16:40:03.189Z,3.40
2023-02-16T16:42:33.673Z,4.67
2023-02-16T16:45:07.358Z,3.97
2023-02-16T16:47:39.881Z,3.13
2023-02-16T16:50:30.066Z,4.00
2023-02-16T16:52:59.320Z,2.70
2023-02-16T16:55:33.504Z,3.13
2023-02-16T16:58:04.955Z,3.30
2023-02-16T17:00:36.444Z,3.40
2023-02-16T17:03:08.468Z,3.30
2023-02-16T17:05:39.973Z,3.60
2023-02-16T17:08:09.175Z,3.23
2023-02-16T17:10:42.135Z,3.20
2023-02-16T17:13:16.219Z,3.20
2023-02-16T17:15:47.975Z,3.30
2023-02-16T17:18:19.563Z,3.10
2023-02-16T17:20:48.461Z,3.63
2023-02-16T17:23:18.344Z,3.60
2023-02-16T17:25:47.119Z,3.37
2023-02-16T17:28:17.812Z,6.47
2023-02-16T17:30:45.900Z,13.60
2023-02-16T17:33:14.181Z,12.37
2023-02-16T17:35:44.775Z,15.40
2023-02-16T17:38:20.942Z,16.63
2023-02-16T17:40:49.422Z,18.27
2023-02-16T17:43:19.002Z,14.23
2023-02-16T17:45:48.870Z,10.03
2023-02-16T17:48:20.031Z,7.00
2023-02-16T17:50:51.336Z,5.80
2023-02-16T17:53:22.070Z,6.77
2023-02-16T17:55:53.141Z,5.60
2023-02-16T17:58:22.396Z,6.27
2023-02-16T18:00:50.533Z,7.77
2023-02-16T18:03:19.200Z,7.50
2023-02-16T18:05:49.945Z,8.77
2023-02-16T18:08:18.220Z,7.73
2023-02-16T18:10:48.557Z,8.80
2023-02-16T18:13:20.370Z,8.63
2023-02-16T18:15:50.659Z,9.33
2023-02-16T18:18:19.625Z,8.30
2023-02-16T18:20:49.220Z,8.73
2023-02-16T18:23:17.603Z,8.50
2023-02-16T18:25:46.132Z,9.10
2023-02-16T18:28:16.032Z,8.87
2023-02-16T18:30:44.261Z,9.60
2023-02-16T18:33:12.371Z,9.40
2023-02-16T18:35:40.419Z,10.30
2023-02-16T18:38:11.023Z,10.43
2023-02-16T18:40:39.020Z,11.93
2023-02-16T18:43:07.077Z,11.77
2023-02-16T18:45:35.164Z,11.40
2023-02-16T18:48:03.341Z,11.43
2023-02-16T18:50:31.560Z,11.43
2023-02-16T18:52:59.626Z,13.03
2023-02-16T18:55:32.977Z,12.60
2023-02-16T18:58:01.184Z,12.73
2023-02-16T19:00:29.972Z,13.77
2023-02-16T19:02:58.371Z,14.50
2023-02-16T19:05:26.660Z,16.13
2023-02-16T19:07:54.923Z,16.30
2023-02-16T19:10:23.252Z,17.37
2023-02-16T19:12:52.937Z,17.20
2023-02-16T19:15:21.392Z,18.80
2023-02-16T19:17:49.859Z,19.47
2023-02-16T19:20:18.679Z,20.43
2023-02-16T19:22:47.485Z,20.73
2023-02-16T19:25:16.279Z,21.53
2023-02-16T19:27:44.755Z,20.13
2023-02-16T19:30:14.906Z,18.93
2023-02-16T19:32:43.133Z,21.33
2023-02-16T19:35:12.520Z,18.87
2023-02-16T19:37:40.738Z,20.53
2023-02-16T19:40:11.704Z,20.17
2023-02-16T19:42:40.386Z,29.00
2023-02-16T19:45:09.212Z,22.70
2023-02-16T19:47:38.737Z,20.80
2023-02-16T19:50:08.152Z,19.20
2023-02-16T19:52:37.030Z,18.43
2023-02-16T19:55:05.742Z,16.57
2023-02-16T19:57:33.897Z,15.53
2023-02-16T20:00:04.164Z,14.03
2023-02-16T20:02:32.971Z,15.43
2023-02-16T20:05:02.567Z,15.07
2023-02-16T20:07:30.793Z,14.97
2023-02-16T20:09:59.073Z,15.07
2023-02-16T20:12:28.755Z,17.53
2023-02-16T20:14:57.877Z,16.77
2023-02-16T20:17:26.476Z,17.57
2023-02-16T20:19:54.954Z,16.80
2023-02-16T20:22:24.861Z,16.97
2023-02-16T20:24:53.189Z,16.93
2023-02-16T20:27:21.193Z,17.70
2023-02-16T20:29:49.586Z,16.17
2023-02-16T20:32:17.718Z,16.30
2023-02-16T20:34:45.831Z,16.10
2023-02-16T20:37:14.110Z,17.23
2023-02-16T20:39:43.639Z,17.20
2023-02-16T20:42:11.895Z,16.60
2023-02-16T20:44:40.123Z,18.23
2023-02-16T20:47:10.228Z,19.03
2023-02-16T20:49:38.594Z,19.83
2023-02-16T20:52:06.764Z,19.13
2023-02-16T20:54:34.972Z,21.03
2023-02-16T20:57:04.566Z,20.13
2023-02-16T20:59:32.888Z,21.37
2023-02-16T21:02:04.693Z,22.77
2023-02-16T21:04:32.868Z,21.40
2023-02-16T21:07:01.044Z,23.40
2023-02-16T21:09:29.254Z,21.43
2023-02-16T21:11:57.309Z,21.87
2023-02-16T21:14:26.866Z,22.53
2023-02-16T21:16:55.110Z,22.33
2023-02-16T21:19:23.658Z,22.43
2023-02-16T21:21:52.214Z,22.70
2023-02-16T21:24:20.596Z,19.90
2023-02-16T21:26:48.900Z,21.17
2023-02-16T21:29:16.947Z,21.10
2023-02-16T21:31:46.618Z,22.47
2023-02-16T21:34:14.765Z,22.60
2023-02-16T21:36:42.788Z,22.47
2023-02-16T21:39:11.012Z,23.17
2023-02-16T21:41:38.069Z,23.27
2023-02-16T21:44:09.076Z,23.23
2023-02-16T21:46:39.628Z,23.00
2023-02-16T21:49:11.577Z,24.60
2023-02-16T21:51:41.319Z,24.87
2023-02-16T21:54:13.822Z,24.77
2023-02-16T21:56:43.356Z,25.03
2023-02-16T21:59:13.168Z,25.80
2023-02-16T22:01:44.776Z,25.80
2023-02-16T22:04:17.205Z,25.87
2023-02-16T22:06:47.203Z,25.10
2023-02-16T22:09:17.489Z,26.07
2023-02-16T22:11:46.308Z,25.10
2023-02-16T22:14:14.929Z,26.80
2023-02-16T22:16:45.258Z,26.37
2023-02-16T22:19:16.879Z,25.90
2023-02-16T22:21:46.167Z,25.77
2023-02-16T22:24:16.022Z,26.97
2023-02-16T22:26:44.365Z,25.90
2023-02-16T22:29:13.258Z,26.60
2023-02-16T22:31:46.160Z,25.87
2023-02-16T22:34:21.164Z,26.90
2023-02-16T22:36:49.528Z,24.90
2023-02-16T22:39:19.809Z,24.87
2023-02-16T22:41:50.367Z,25.13
2023-02-16T22:44:18.529Z,24.33
2023-02-16T22:46:46.733Z,24.60
2023-02-16T22:49:16.365Z,23.47
2023-02-16T22:51:44.715Z,23.20
2023-02-16T22:54:14.451Z,24.23
2023-02-16T22:56:42.504Z,23.87
2023-02-16T22:59:12.206Z,23.50
2023-02-16T23:01:40.803Z,23.47
2023-02-16T23:04:08.890Z,24.03
2023-02-16T23:06:38.688Z,24.80
2023-02-16T23:09:09.568Z,22.67
2023-02-16T23:11:37.885Z,24.03
2023-02-16T23:14:06.707Z,23.33
2023-02-16T23:16:34.827Z,22.93
2023-02-16T23:19:02.909Z,21.20
2023-02-16T23:21:32.572Z,21.30
2023-02-16T23:24:02.186Z,22.07
2023-02-16T23:26:32.117Z,22.10
2023-02-16T23:29:02.021Z,20.20
2023-02-16T23:31:32.789Z,21.07
2023-02-16T23:34:02.387Z,20.93
2023-02-16T23:36:30.870Z,21.67
2023-02-16T23:39:01.899Z,21.30
2023-02-16T23:41:30.218Z,21.77
2023-02-16T23:44:00.658Z,21.50
2023-02-16T23:46:29.657Z,21.53
2023-02-16T23:48:57.822Z,21.50
2023-02-16T23:51:26.177Z,21.70
2023-02-16T23:53:54.389Z,22.10
2023-02-16T23:56:25.827Z,22.03
2023-02-16T23:58:57.280Z,22.23
